createdAt,value
2023-05-21T00:00:17.506Z,99995.81
2023-05-21T00:02:44.840Z,99986.00
2023-05-21T00:05:14.829Z,99989.81
2023-05-21T00:07:42.116Z,99973.47
2023-05-21T00:10:09.549Z,99981.38
2023-05-21T00:12:36.501Z,99988.16
2023-05-21T00:15:03.949Z,99982.69
2023-05-21T00:17:31.000Z,99996.03
2023-05-21T00:19:57.940Z,99994.09
2023-05-21T00:22:24.892Z,99998.47
2023-05-21T00:24:51.963Z,99990.53
2023-05-21T00:27:20.079Z,99988.03
2023-05-21T00:29:47.073Z,99991.03
2023-05-21T00:32:14.216Z,99991.03
2023-05-21T00:34:41.713Z,99985.03
2023-05-21T00:37:10.179Z,99991.25
2023-05-21T00:39:37.340Z,99993.13
2023-05-21T00:42:04.546Z,99988.28
2023-05-21T00:44:34.577Z,99987.53
2023-05-21T00:47:04.329Z,99988.03
2023-05-21T00:49:31.811Z,99981.72
2023-05-21T00:52:01.846Z,99978.75
2023-05-21T00:54:30.733Z,99969.47
2023-05-21T00:56:58.286Z,99957.00
2023-05-21T00:59:26.020Z,99958.94
2023-05-21T01:01:56.444Z,99962.75
2023-05-21T01:04:24.032Z,99961.13
2023-05-21T01:06:53.686Z,99955.38
2023-05-21T01:09:20.985Z,99957.00
2023-05-21T01:11:50.996Z,99958.84
2023-05-21T01:14:20.049Z,99957.09
2023-05-21T01:16:49.920Z,99965.50
2023-05-21T01:19:22.210Z,99957.06
2023-05-21T01:22:01.788Z,99957.50
2023-05-21T01:24:28.817Z,99949.31
2023-05-21T01:26:56.289Z,99952.31
2023-05-21T01:29:23.260Z,99953.09
2023-05-21T01:32:03.366Z,99959.66
2023-05-21T01:34:45.117Z,99956.38
2023-05-21T01:37:23.016Z,99956.94
2023-05-21T01:39:57.483Z,99957.94
2023-05-21T01:42:26.035Z,99949.69
2023-05-21T01:44:56.066Z,99961.78
2023-05-21T01:47:24.513Z,99956.34
2023-05-21T01:49:53.236Z,99959.88
2023-05-21T01:52:20.570Z,99959.06
2023-05-21T01:54:47.676Z,99957.97
2023-05-21T01:57:14.741Z,99961.47
2023-05-21T01:59:41.821Z,99960.91
2023-05-21T02:02:08.951Z,99960.59
2023-05-21T02:04:36.221Z,99960.03
2023-05-21T02:07:03.167Z,99963.38
2023-05-21T02:09:30.166Z,99954.72
2023-05-21T02:11:57.196Z,99956.59
2023-05-21T02:14:25.583Z,99960.59
2023-05-21T02:16:52.868Z,99952.66
2023-05-21T02:19:19.980Z,99953.66
2023-05-21T02:21:47.070Z,99956.00
2023-05-21T02:24:14.549Z,99957.59
2023-05-21T02:26:41.805Z,99961.34
2023-05-21T02:29:09.127Z,99954.75
2023-05-21T02:31:36.296Z,99957.84
2023-05-21T02:34:03.344Z,99968.66
2023-05-21T02:36:33.505Z,99962.59
2023-05-21T02:39:01.935Z,99960.28
2023-05-21T02:41:29.386Z,99965.19
2023-05-21T02:43:56.457Z,99970.44
2023-05-21T02:46:23.561Z,99968.44
2023-05-21T02:48:51.724Z,99975.94
2023-05-21T02:51:18.744Z,99973.56
2023-05-21T02:53:45.968Z,99972.59
2023-05-21T02:56:13.627Z,99976.56
2023-05-21T02:58:40.771Z,99977.06
2023-05-21T03:01:07.849Z,99976.72
2023-05-21T03:03:35.029Z,99973.19
2023-05-21T03:06:02.848Z,99976.16
2023-05-21T03:08:29.896Z,99967.88
2023-05-21T03:10:57.049Z,99970.78
2023-05-21T03:13:24.082Z,99969.19
2023-05-21T03:15:56.373Z,99976.00
2023-05-21T03:18:23.888Z,99976.78
2023-05-21T03:20:50.883Z,99974.94
2023-05-21T03:23:18.224Z,99977.53
2023-05-21T03:25:46.321Z,99976.03
2023-05-21T03:28:13.954Z,99980.50
2023-05-21T03:30:47.065Z,99973.94
2023-05-21T03:33:36.917Z,99983.25
2023-05-21T03:36:15.778Z,99987.09
2023-05-21T03:38:43.130Z,99983.25
2023-05-21T03:41:10.962Z,99984.91
2023-05-21T03:43:38.723Z,99973.78
2023-05-21T03:46:05.772Z,99975.16
2023-05-21T03:49:07.975Z,99971.31
2023-05-21T03:51:38.552Z,99968.91
2023-05-21T03:54:06.870Z,99976.16
2023-05-21T03:56:36.001Z,99973.75
2023-05-21T03:59:03.029Z,99977.28
2023-05-21T04:01:30.821Z,99984.25
2023-05-21T04:03:58.197Z,99986.94
2023-05-21T04:06:26.980Z,99996.19
2023-05-21T04:08:53.989Z,99989.16
2023-05-21T04:11:21.181Z,99984.69
2023-05-21T04:13:48.425Z,99986.34
2023-05-21T04:16:19.588Z,99986.63
2023-05-21T04:18:47.698Z,99981.78
2023-05-21T04:21:16.637Z,99971.06
2023-05-21T04:23:44.032Z,99981.03
2023-05-21T04:26:21.342Z,99986.25
2023-05-21T04:28:48.322Z,99987.03
2023-05-21T04:31:15.392Z,99992.25
2023-05-21T04:33:46.301Z,99988.50
2023-05-21T04:36:13.671Z,99982.66
2023-05-21T04:38:42.097Z,99991.22
2023-05-21T04:41:11.034Z,99997.88
2023-05-21T04:43:38.818Z,100003.28
2023-05-21T04:46:06.224Z,99994.97
2023-05-21T04:48:34.445Z,100001.97
2023-05-21T04:51:01.698Z,99998.34
2023-05-21T04:53:29.396Z,99997.34
2023-05-21T04:55:56.434Z,100002.28
2023-05-21T04:58:23.407Z,100003.13
2023-05-21T05:00:52.155Z,99999.56
2023-05-21T05:03:20.576Z,99995.81
2023-05-21T05:05:47.729Z,99997.16
2023-05-21T05:08:16.054Z,99996.09
2023-05-21T05:10:43.641Z,99982.63
2023-05-21T05:13:12.813Z,99995.38
2023-05-21T05:15:39.800Z,100000.22
2023-05-21T05:18:08.831Z,99992.84
2023-05-21T05:20:36.038Z,100005.00
2023-05-21T05:23:03.090Z,100000.09
2023-05-21T05:25:30.159Z,100003.16
2023-05-21T05:27:58.059Z,100009.09
2023-05-21T05:30:25.021Z,100005.56
2023-05-21T05:32:52.751Z,100007.09
2023-05-21T05:35:20.030Z,100015.44
2023-05-21T05:37:46.977Z,100004.22
2023-05-21T05:40:14.028Z,100013.94
2023-05-21T05:42:40.975Z,100013.84
2023-05-21T05:45:12.794Z,100007.47
2023-05-21T05:47:40.663Z,100001.44
2023-05-21T05:50:08.194Z,100009.63
2023-05-21T05:52:36.126Z,100015.56
2023-05-21T05:55:03.329Z,100010.63
2023-05-21T05:57:30.451Z,100005.47
2023-05-21T06:00:05.121Z,100014.50
2023-05-21T06:02:39.516Z,100002.50
2023-05-21T06:05:07.556Z,99990.28
2023-05-21T06:07:34.583Z,99999.25
2023-05-21T06:10:01.558Z,100009.19
2023-05-21T06:12:28.773Z,100007.84
2023-05-21T06:14:55.833Z,100002.94
2023-05-21T06:17:23.109Z,100015.31
2023-05-21T06:19:51.150Z,99998.19
2023-05-21T06:22:18.540Z,100017.28
2023-05-21T06:24:45.657Z,100008.28
2023-05-21T06:27:13.399Z,100014.56
2023-05-21T06:29:41.143Z,100015.66
2023-05-21T06:32:11.254Z,100024.66
2023-05-21T06:34:38.307Z,100012.09
2023-05-21T06:37:05.503Z,100010.22
2023-05-21T06:39:32.845Z,100017.50
2023-05-21T06:41:59.851Z,100009.38
2023-05-21T06:44:44.923Z,99998.47
2023-05-21T06:47:16.780Z,100007.19
2023-05-21T06:49:44.172Z,100010.97
2023-05-21T06:52:11.545Z,100004.69
2023-05-21T06:54:38.934Z,100000.31
2023-05-21T06:57:07.106Z,99995.81
2023-05-21T06:59:34.390Z,100003.03
2023-05-21T07:02:04.334Z,100009.84
2023-05-21T07:04:31.870Z,100008.50
2023-05-21T07:06:59.078Z,100007.97
2023-05-21T07:09:26.125Z,100009.28
2023-05-21T07:11:55.818Z,100010.72
2023-05-21T07:14:22.751Z,100009.00
2023-05-21T07:16:51.169Z,100013.03
2023-05-21T07:19:18.161Z,100013.03
2023-05-21T07:21:45.207Z,100017.66
2023-05-21T07:24:12.295Z,100019.22
2023-05-21T07:26:40.823Z,100026.00
2023-05-21T07:29:07.998Z,100023.16
2023-05-21T07:31:35.083Z,100019.41
2023-05-21T07:34:02.207Z,100014.28
2023-05-21T07:36:33.755Z,100009.56
2023-05-21T07:39:02.859Z,100013.72
2023-05-21T07:41:29.915Z,100015.88
2023-05-21T07:43:58.137Z,99996.94
2023-05-21T07:46:25.121Z,100008.59
2023-05-21T07:48:55.191Z,99997.00
2023-05-21T07:51:22.399Z,99996.28
2023-05-21T07:53:50.149Z,99994.63
2023-05-21T07:56:20.260Z,100001.69
2023-05-21T07:58:47.948Z,99990.25
2023-05-21T08:01:16.249Z,99996.16
2023-05-21T08:03:43.368Z,99997.94
2023-05-21T08:06:10.526Z,99997.81
2023-05-21T08:08:38.906Z,99999.06
2023-05-21T08:11:06.235Z,100002.28
2023-05-21T08:13:34.701Z,100001.47
2023-05-21T08:16:06.377Z,99998.00
2023-05-21T08:18:33.548Z,100000.34
2023-05-21T08:21:01.859Z,99997.63
2023-05-21T08:23:29.311Z,99999.69
2023-05-21T08:25:58.937Z,99991.59
2023-05-21T08:28:27.834Z,99993.53
2023-05-21T08:30:55.543Z,99990.88
2023-05-21T08:33:24.307Z,99989.59
2023-05-21T08:35:51.808Z,99997.94
2023-05-21T08:38:23.526Z,99997.38
2023-05-21T08:41:14.214Z,99998.78
2023-05-21T08:43:48.009Z,99993.44
2023-05-21T08:46:21.906Z,99999.69
2023-05-21T08:48:49.703Z,99997.16
2023-05-21T08:51:17.225Z,100005.97
2023-05-21T08:53:49.956Z,100009.03
2023-05-21T08:56:18.628Z,99999.50
2023-05-21T08:58:49.459Z,100005.91
2023-05-21T09:01:20.467Z,99991.44
2023-05-21T09:04:05.064Z,99998.47
2023-05-21T09:06:41.633Z,99996.81
2023-05-21T09:09:26.351Z,99999.72
2023-05-21T09:11:53.489Z,99994.78
2023-05-21T09:14:23.142Z,99993.56
2023-05-21T09:17:14.110Z,99992.44
2023-05-21T09:20:08.537Z,99983.72
2023-05-21T09:22:37.872Z,99993.59
2023-05-21T09:25:08.116Z,99992.19
2023-05-21T09:27:35.972Z,99986.19
2023-05-21T09:30:10.261Z,99988.97
2023-05-21T09:32:38.039Z,99995.34
2023-05-21T09:35:08.489Z,99989.19
2023-05-21T09:37:44.163Z,99986.44
2023-05-21T09:40:18.776Z,99989.81
2023-05-21T09:42:50.553Z,99988.41
2023-05-21T09:45:25.954Z,99991.28
2023-05-21T09:47:56.786Z,99986.00
2023-05-21T09:50:28.627Z,99994.31
2023-05-21T09:52:56.442Z,99987.94
2023-05-21T09:55:24.615Z,99977.44
2023-05-21T09:57:52.445Z,99980.59
2023-05-21T10:00:28.214Z,99983.16
2023-05-21T10:02:56.624Z,99983.44
2023-05-21T10:05:28.420Z,99986.13
2023-05-21T10:08:04.961Z,99984.72
2023-05-21T10:10:33.037Z,99984.13
2023-05-21T10:13:08.907Z,99989.97
2023-05-21T10:15:42.726Z,99981.84
2023-05-21T10:18:12.614Z,99978.50
2023-05-21T10:20:40.628Z,99987.25
2023-05-21T10:23:08.409Z,99986.75
2023-05-21T10:25:36.465Z,99988.06
2023-05-21T10:28:03.633Z,99985.25
2023-05-21T10:30:31.790Z,99987.25
2023-05-21T10:33:00.043Z,99981.91
2023-05-21T10:35:27.820Z,99987.56
2023-05-21T10:37:54.910Z,99989.78
2023-05-21T10:40:22.026Z,99979.44
2023-05-21T10:43:06.673Z,99975.00
2023-05-21T10:45:58.422Z,99961.00
2023-05-21T10:48:52.531Z,99969.38
2023-05-21T10:51:25.936Z,99971.38
2023-05-21T10:54:19.084Z,99983.13
2023-05-21T10:57:02.028Z,99968.88
2023-05-21T10:59:47.241Z,99967.88
2023-05-21T11:02:18.051Z,99962.03
2023-05-21T11:04:45.905Z,99972.50
2023-05-21T11:07:13.537Z,99972.69
2023-05-21T11:09:40.617Z,99975.19
2023-05-21T11:12:10.024Z,99967.53
2023-05-21T11:14:43.209Z,99962.63
2023-05-21T11:17:16.177Z,99966.88
2023-05-21T11:19:47.664Z,99970.44
2023-05-21T11:22:27.982Z,99965.22
2023-05-21T11:24:56.909Z,99936.53
2023-05-21T11:27:37.289Z,99971.75
2023-05-21T11:30:18.366Z,99959.22
2023-05-21T11:33:15.932Z,99954.91
2023-05-21T11:35:45.940Z,99965.09
2023-05-21T11:38:13.054Z,99960.19
2023-05-21T11:40:51.094Z,99958.50
2023-05-21T11:43:18.839Z,99950.16
2023-05-21T11:45:47.569Z,99944.63
2023-05-21T11:48:14.824Z,99941.59
2023-05-21T11:50:42.834Z,99951.03
2023-05-21T11:53:12.434Z,99939.41
2023-05-21T11:55:43.892Z,99945.75
2023-05-21T11:58:14.701Z,99941.53
2023-05-21T12:00:41.736Z,99934.63
2023-05-21T12:03:13.245Z,99938.13
2023-05-21T12:05:49.780Z,99926.47
2023-05-21T12:08:27.347Z,99924.00
2023-05-21T12:11:00.508Z,99929.91
2023-05-21T12:13:28.400Z,99930.84
2023-05-21T12:15:55.484Z,99930.91
2023-05-21T12:18:22.836Z,99923.06
2023-05-21T12:20:52.333Z,99932.47
2023-05-21T12:23:23.581Z,99923.72
2023-05-21T12:25:51.871Z,99932.16
2023-05-21T12:28:21.038Z,99925.34
2023-05-21T12:30:48.192Z,99928.38
2023-05-21T12:33:18.269Z,99920.59
2023-05-21T12:35:51.090Z,99926.00
2023-05-21T12:38:18.665Z,99918.22
2023-05-21T12:40:46.020Z,99915.44
2023-05-21T12:43:13.474Z,99924.06
2023-05-21T12:45:41.134Z,99917.41
2023-05-21T12:48:08.931Z,99919.00
2023-05-21T12:50:40.062Z,99913.66
2023-05-21T12:53:11.064Z,99908.63
2023-05-21T12:55:38.180Z,99914.41
2023-05-21T12:58:08.615Z,99922.69
2023-05-21T13:00:36.564Z,99910.56
2023-05-21T13:03:06.764Z,99904.44
2023-05-21T13:05:34.697Z,99906.28
2023-05-21T13:08:03.666Z,99903.91
2023-05-21T13:13:15.206Z,99898.25
2023-05-21T13:15:43.532Z,99888.84
2023-05-21T13:18:12.651Z,99892.75
2023-05-21T13:20:39.786Z,99884.63
2023-05-21T13:23:10.544Z,99890.81
2023-05-21T13:25:42.331Z,99888.31
2023-05-21T13:28:12.990Z,99889.97
2023-05-21T13:30:40.206Z,99889.41
2023-05-21T13:33:07.444Z,99885.69
2023-05-21T13:35:34.913Z,99885.75
2023-05-21T13:38:01.899Z,99875.38
2023-05-21T13:40:29.110Z,99872.63
2023-05-21T13:42:56.086Z,99868.09
2023-05-21T13:45:29.388Z,99872.63
2023-05-21T13:47:56.727Z,99858.69
2023-05-21T13:50:25.196Z,99864.03
2023-05-21T13:52:52.357Z,99853.50
2023-05-21T13:55:19.671Z,99859.16
2023-05-21T13:57:46.773Z,99853.00
2023-05-21T14:00:16.267Z,99845.56
2023-05-21T14:02:43.940Z,99856.88
2023-05-21T14:05:12.323Z,99853.88
2023-05-21T14:07:40.302Z,99856.03
2023-05-21T14:10:07.872Z,99858.84
2023-05-21T14:12:34.929Z,99861.06
2023-05-21T14:15:01.932Z,99857.63
2023-05-21T14:17:29.074Z,99857.47
2023-05-21T14:19:56.216Z,99847.59
2023-05-21T14:22:23.547Z,99848.69
2023-05-21T14:24:50.877Z,99851.34
2023-05-21T14:27:17.933Z,99843.78
2023-05-21T14:29:44.975Z,99843.59
2023-05-21T14:32:12.111Z,99832.72
2023-05-21T14:34:40.559Z,99835.94
2023-05-21T14:37:07.633Z,99837.28
2023-05-21T14:39:34.576Z,99839.56
2023-05-21T14:42:04.215Z,99839.88
2023-05-21T14:44:31.779Z,99834.84
2023-05-21T14:46:59.496Z,99843.09
2023-05-21T14:49:26.435Z,99838.88
2023-05-21T14:51:53.471Z,99842.56
2023-05-21T14:54:20.748Z,99843.91
2023-05-21T14:56:47.696Z,99835.78
2023-05-21T14:59:14.804Z,99844.56
2023-05-21T15:01:41.874Z,99840.16
2023-05-21T15:04:09.041Z,99833.72
2023-05-21T15:06:36.267Z,99838.75
2023-05-21T15:09:03.273Z,99829.66
2023-05-21T15:11:30.445Z,99836.63
2023-05-21T15:13:57.421Z,99828.00
2023-05-21T15:16:24.409Z,99830.91
2023-05-21T15:18:51.563Z,99830.47
2023-05-21T15:21:18.576Z,99829.94
2023-05-21T15:23:45.916Z,99828.91
2023-05-21T15:26:12.929Z,99834.78
2023-05-21T15:28:40.088Z,99833.34
2023-05-21T15:31:07.102Z,99827.78
2023-05-21T15:33:34.070Z,99825.59
2023-05-21T15:36:01.129Z,99833.34
2023-05-21T15:38:28.266Z,99830.63
2023-05-21T15:40:55.800Z,99832.34
2023-05-21T15:43:22.858Z,99835.97
2023-05-21T15:45:49.870Z,99832.53
2023-05-21T15:48:22.729Z,99842.25
2023-05-21T15:50:50.817Z,99833.47
2023-05-21T15:53:17.897Z,99822.75
2023-05-21T15:55:45.109Z,99815.59
2023-05-21T15:58:12.129Z,99824.66
2023-05-21T16:00:39.210Z,99815.13
2023-05-21T16:03:06.553Z,99817.47
2023-05-21T16:05:33.654Z,99834.81
2023-05-21T16:08:00.740Z,99825.41
2023-05-21T16:10:27.795Z,99833.91
2023-05-21T16:12:54.829Z,99823.97
2023-05-21T16:15:21.903Z,99827.53
2023-05-21T16:17:48.919Z,99827.13
2023-05-21T16:20:16.398Z,99835.94
2023-05-21T16:22:43.326Z,99826.84
2023-05-21T16:25:10.331Z,99834.66
2023-05-21T16:27:38.381Z,99834.41
2023-05-21T16:30:07.707Z,99844.84
2023-05-21T16:32:34.730Z,99838.56
2023-05-21T16:35:01.788Z,99839.84
2023-05-21T16:37:29.091Z,99845.63
2023-05-21T16:39:56.247Z,99849.72
2023-05-21T16:42:23.193Z,99854.09
2023-05-21T16:44:50.116Z,99852.56
2023-05-21T16:47:17.102Z,99845.75
2023-05-21T16:49:44.066Z,99849.56
2023-05-21T16:52:11.160Z,99845.75
2023-05-21T16:54:38.435Z,99856.88
2023-05-21T16:57:05.614Z,99856.75
2023-05-21T16:59:32.922Z,99847.81
2023-05-21T17:02:00.148Z,99850.72
2023-05-21T17:04:27.588Z,99847.47
2023-05-21T17:06:54.507Z,99845.47
2023-05-21T17:09:21.596Z,99854.44
2023-05-21T17:11:48.896Z,99853.47
2023-05-21T17:14:32.572Z,99861.56
2023-05-21T17:17:01.118Z,99856.84
2023-05-21T17:19:28.220Z,99860.75
2023-05-21T17:21:56.349Z,99868.59
2023-05-21T17:24:23.289Z,99856.41
2023-05-21T17:26:50.467Z,99867.94
2023-05-21T17:29:20.562Z,99855.72
2023-05-21T17:31:47.648Z,99864.31
2023-05-21T17:34:14.716Z,99869.50
2023-05-21T17:36:41.732Z,99876.81
2023-05-21T17:39:08.771Z,99872.16
2023-05-21T17:41:35.806Z,99872.41
2023-05-21T17:44:02.813Z,99885.72
2023-05-21T17:46:29.936Z,99882.91
2023-05-21T17:48:57.402Z,99885.97
2023-05-21T17:51:24.486Z,99888.28
2023-05-21T17:53:51.443Z,99884.13
2023-05-21T17:56:18.563Z,99887.69
2023-05-21T17:58:45.520Z,99895.19
2023-05-21T18:01:12.678Z,99892.59
2023-05-21T18:03:39.685Z,99890.28
2023-05-21T18:06:08.772Z,99896.22
2023-05-21T18:08:36.733Z,99896.31
2023-05-21T18:11:03.891Z,99896.47
2023-05-21T18:13:31.026Z,99907.72
2023-05-21T18:15:58.734Z,99911.25
2023-05-21T18:18:25.813Z,99896.81
2023-05-21T18:20:53.548Z,99911.09
2023-05-21T18:23:21.015Z,99900.72
2023-05-21T18:25:48.033Z,99919.25
2023-05-21T18:28:15.109Z,99907.78
2023-05-21T18:30:42.182Z,99917.44
2023-05-21T18:33:09.548Z,99913.97
2023-05-21T18:35:36.553Z,99904.94
2023-05-21T18:38:04.464Z,99917.06
2023-05-21T18:40:33.463Z,99910.50
2023-05-21T18:43:00.930Z,99912.47
2023-05-21T18:45:28.160Z,99907.88
2023-05-21T18:47:55.207Z,99912.00
2023-05-21T18:50:22.357Z,99920.28
2023-05-21T18:52:53.521Z,99926.66
2023-05-21T18:55:20.582Z,99926.75
2023-05-21T18:57:47.597Z,99930.03
2023-05-21T19:00:14.748Z,99928.75
2023-05-21T19:02:43.295Z,99931.22
2023-05-21T19:05:10.403Z,99929.06
2023-05-21T19:07:37.471Z,99944.50
2023-05-21T19:10:05.315Z,99940.47
2023-05-21T19:12:32.462Z,99939.66
2023-05-21T19:14:59.686Z,99939.09
2023-05-21T19:17:26.677Z,99939.72
2023-05-21T19:19:56.843Z,99936.41
2023-05-21T19:22:28.033Z,99944.69
2023-05-21T19:24:55.228Z,99945.03
2023-05-21T19:27:22.433Z,99935.72
2023-05-21T19:29:49.740Z,99949.03
2023-05-21T19:32:16.771Z,99951.03
2023-05-21T19:34:43.939Z,99957.63
2023-05-21T19:37:10.910Z,99959.78
2023-05-21T19:39:39.374Z,99954.22
2023-05-21T19:42:09.901Z,99958.28
2023-05-21T19:44:39.619Z,99962.38
2023-05-21T19:47:06.765Z,99951.97
2023-05-21T19:49:34.019Z,99965.63
2023-05-21T19:52:02.321Z,99957.44
2023-05-21T19:54:29.495Z,99957.75
2023-05-21T19:56:57.074Z,99962.44
2023-05-21T19:59:24.324Z,99965.09
2023-05-21T20:01:51.855Z,99964.81
2023-05-21T20:04:18.914Z,99966.66
2023-05-21T20:06:45.907Z,99968.31
2023-05-21T20:09:13.962Z,99972.72
2023-05-21T20:11:42.536Z,99974.66
2023-05-21T20:14:09.622Z,99969.47
2023-05-21T20:16:37.158Z,99972.19
2023-05-21T20:19:04.380Z,99973.91
2023-05-21T20:21:34.249Z,99967.38
2023-05-21T20:24:01.507Z,99971.50
2023-05-21T20:26:28.568Z,99965.50
2023-05-21T20:28:55.775Z,99963.94
2023-05-21T20:31:23.068Z,99969.75
2023-05-21T20:33:52.537Z,99966.16
2023-05-21T20:36:21.474Z,99966.44
2023-05-21T20:38:48.587Z,99963.22
2023-05-21T20:41:15.740Z,99966.00
2023-05-21T20:43:46.126Z,99967.19
2023-05-21T20:46:13.775Z,99964.19
2023-05-21T20:48:42.008Z,99954.47
2023-05-21T20:51:09.390Z,99952.81
2023-05-21T20:53:37.190Z,99958.22
2023-05-21T20:56:08.351Z,99959.94
2023-05-21T20:58:35.517Z,99953.75
2023-05-21T21:01:02.623Z,99960.88
2023-05-21T21:03:30.040Z,99961.44
2023-05-21T21:05:58.268Z,99969.16
2023-05-21T21:08:25.253Z,99970.03
2023-05-21T21:10:52.271Z,99971.44
2023-05-21T21:13:19.272Z,99973.91
2023-05-21T21:15:46.511Z,99973.78
2023-05-21T21:18:14.574Z,99964.19
2023-05-21T21:20:42.889Z,99971.84
2023-05-21T21:23:09.885Z,99969.16
2023-05-21T21:25:36.886Z,99975.19
2023-05-21T21:28:04.190Z,99974.63
2023-05-21T21:30:31.387Z,99981.69
2023-05-21T21:32:58.502Z,99974.56
2023-05-21T21:35:25.639Z,99983.91
2023-05-21T21:37:52.803Z,99979.59
2023-05-21T21:40:19.791Z,99977.56
2023-05-21T21:42:46.850Z,99975.44
2023-05-21T21:45:13.826Z,99979.78
2023-05-21T21:47:41.327Z,99978.66
2023-05-21T21:50:08.731Z,99982.19
2023-05-21T21:52:40.219Z,99986.63
2023-05-21T21:55:11.118Z,99985.53
2023-05-21T21:57:39.655Z,99989.91
2023-05-21T22:00:11.794Z,99993.44
2023-05-21T22:02:40.422Z,99997.22
2023-05-21T22:05:08.849Z,99997.22
2023-05-21T22:07:38.902Z,99996.41
2023-05-21T22:10:06.575Z,99997.00
2023-05-21T22:12:34.261Z,99997.00
2023-05-21T22:15:05.532Z,99999.22
2023-05-21T22:17:33.071Z,99993.22
2023-05-21T22:20:00.766Z,99997.88
2023-05-21T22:22:27.835Z,99993.00
2023-05-21T22:24:54.879Z,99998.44
2023-05-21T22:27:21.929Z,99990.28
2023-05-21T22:29:48.882Z,99989.44
2023-05-21T22:32:15.947Z,99983.09
2023-05-21T22:34:43.520Z,99989.09
2023-05-21T22:37:11.341Z,99983.94
2023-05-21T22:39:38.445Z,99990.47
2023-05-21T22:42:05.946Z,99979.06
2023-05-21T22:44:32.948Z,99989.44
2023-05-21T22:47:00.488Z,99976.06
2023-05-21T22:49:27.520Z,99977.44
2023-05-21T22:51:54.616Z,99983.47
2023-05-21T22:54:21.929Z,99978.28
2023-05-21T22:56:50.055Z,99971.72
2023-05-21T22:59:17.157Z,99977.72
2023-05-21T23:01:44.325Z,99979.38
2023-05-21T23:04:11.258Z,99986.75
2023-05-21T23:06:38.264Z,99982.69
2023-05-21T23:09:05.333Z,99984.03
2023-05-21T23:11:32.617Z,99981.84
2023-05-21T23:13:59.667Z,99982.13
2023-05-21T23:16:26.670Z,99985.13
2023-05-21T23:18:54.666Z,99990.31
2023-05-21T23:21:22.143Z,99975.28
2023-05-21T23:23:49.182Z,99982.63
2023-05-21T23:26:16.393Z,99976.97
2023-05-21T23:28:43.384Z,99979.41
2023-05-21T23:31:11.149Z,99976.44
2023-05-21T23:33:38.400Z,99973.72
2023-05-21T23:36:05.722Z,99977.84
2023-05-21T23:38:32.666Z,99980.25
2023-05-21T23:40:59.586Z,99976.19
2023-05-21T23:43:26.522Z,99971.00
2023-05-21T23:45:53.637Z,99963.38
2023-05-21T23:48:20.735Z,99972.09
2023-05-21T23:50:47.846Z,99966.94
2023-05-21T23:53:14.779Z,99961.19
2023-05-21T23:55:41.734Z,99961.72
2023-05-21T23:58:08.769Z,99967.41
